sensor_id;sensor_type;location;lat;lon;timestamp;pressure;altitude;pressure_sealevel;temperature;humidity
15932;BME280;8065;49.520;11.284;2024-01-07T00:00:08;96814.88;;;8.23;80.18
15932;BME280;8065;49.520;11.284;2024-01-07T00:02:39;96810.50;;;8.28;80.10
15932;BME280;8065;49.520;11.284;2024-01-07T00:05:07;96813.59;;;8.30;79.76
15932;BME280;8065;49.520;11.284;2024-01-07T00:07:36;96810.50;;;8.28;79.65
15932;BME280;8065;49.520;11.284;2024-01-07T00:10:05;96807.38;;;8.26;79.35
15932;BME280;8065;49.520;11.284;2024-01-07T00:12:34;96810.16;;;8.29;79.36
15932;BME280;8065;49.520;11.284;2024-01-07T00:15:03;96814.88;;;8.23;79.18
15932;BME280;8065;49.520;11.284;2024-01-07T00:17:31;96821.72;;;8.25;79.77
15932;BME280;8065;49.520;11.284;2024-01-07T00:20:03;96816.78;;;8.14;80.07
15932;BME280;8065;49.520;11.284;2024-01-07T00:22:31;96814.44;;;8.13;79.66
15932;BME280;8065;49.520;11.284;2024-01-07T00:25:00;96813.66;;;8.12;79.57
15932;BME280;8065;49.520;11.284;2024-01-07T00:27:28;96815.22;;;8.13;79.60
15932;BME280;8065;49.520;11.284;2024-01-07T00:29:56;96815.22;;;8.13;79.42
15932;BME280;8065;49.520;11.284;2024-01-07T00:32:25;96815.81;;;8.19;79.30
15932;BME280;8065;49.520;11.284;2024-01-07T00:34:53;96813.03;;;8.15;79.50
15932;BME280;8065;49.520;11.284;2024-01-07T00:37:24;96814.72;;;8.20;79.57
15932;BME280;8065;49.520;11.284;2024-01-07T00:39:52;96816.59;;;8.19;79.58
15932;BME280;8065;49.520;11.284;2024-01-07T00:42:21;96819.59;;;8.09;80.36
15932;BME280;8065;49.520;11.284;2024-01-07T00:44:49;96821.16;;;8.10;80.16
15932;BME280;8065;49.520;11.284;2024-01-07T00:47:17;96821.28;;;8.14;80.10
15932;BME280;8065;49.520;11.284;2024-01-07T00:49:46;96822.22;;;8.18;79.94
15932;BME280;8065;49.520;11.284;2024-01-07T00:52:14;96818.16;;;8.20;79.61
15932;BME280;8065;49.520;11.284;2024-01-07T00:54:45;96820.63;;;8.26;79.08
15932;BME280;8065;49.520;11.284;2024-01-07T00:57:13;96822.63;;;8.29;79.08
15932;BME280;8065;49.520;11.284;2024-01-07T00:59:41;96829.16;;;8.40;78.49
15932;BME280;8065;49.520;11.284;2024-01-07T01:02:10;96831.19;;;8.34;78.58
15932;BME280;8065;49.520;11.284;2024-01-07T01:04:38;96832.56;;;8.32;78.55
15932;BME280;8065;49.520;11.284;2024-01-07T01:07:07;96832.56;;;8.32;78.71
15932;BME280;8065;49.520;11.284;2024-01-07T01:09:35;96835.72;;;8.34;78.46
15932;BME280;8065;49.520;11.284;2024-01-07T01:12:06;96833.34;;;8.32;78.36
15932;BME280;8065;49.520;11.284;2024-01-07T01:14:35;96837.25;;;8.35;78.35
15932;BME280;8065;49.520;11.284;2024-01-07T01:17:03;96836.50;;;8.34;78.76
15932;BME280;8065;49.520;11.284;2024-01-07T01:19:32;96841.63;;;8.31;78.68
15932;BME280;8065;49.520;11.284;2024-01-07T01:22:00;96844.75;;;8.33;78.37
15932;BME280;8065;49.520;11.284;2024-01-07T01:24:28;96839.47;;;8.33;78.40
15932;BME280;8065;49.520;11.284;2024-01-07T01:26:56;96844.75;;;8.33;78.64
15932;BME280;8065;49.520;11.284;2024-01-07T01:29:27;96838.66;;;8.32;78.47
15932;BME280;8065;49.520;11.284;2024-01-07T01:31:56;96847.84;;;8.35;78.38
15932;BME280;8065;49.520;11.284;2024-01-07T01:34:24;96850.50;;;8.35;78.19
15932;BME280;8065;49.520;11.284;2024-01-07T01:36:52;96853.16;;;8.35;78.61
15932;BME280;8065;49.520;11.284;2024-01-07T01:39:20;96852.38;;;8.34;78.21
15932;BME280;8065;49.520;11.284;2024-01-07T01:41:49;96847.84;;;8.35;78.13
15932;BME280;8065;49.520;11.284;2024-01-07T01:44:17;96850.50;;;8.35;78.32
15932;BME280;8065;49.520;11.284;2024-01-07T01:46:48;96852.53;;;8.29;78.50
15932;BME280;8065;49.520;11.284;2024-01-07T01:49:16;96852.19;;;8.31;78.21
15932;BME280;8065;49.520;11.284;2024-01-07T01:51:45;96853.28;;;8.30;78.28
15932;BME280;8065;49.520;11.284;2024-01-07T01:54:15;96847.53;;;8.28;78.43
15932;BME280;8065;49.520;11.284;2024-01-07T01:56:43;96852.69;;;8.24;78.45
15932;BME280;8065;49.520;11.284;2024-01-07T01:59:12;96846.63;;;8.23;78.48
15932;BME280;8065;49.520;11.284;2024-01-07T02:01:40;96853.47;;;8.25;78.28
15932;BME280;8065;49.520;11.284;2024-01-07T02:04:11;96849.72;;;8.26;77.95
15932;BME280;8065;49.520;11.284;2024-01-07T02:06:40;96852.84;;;8.28;78.01
15932;BME280;8065;49.520;11.284;2024-01-07T02:09:08;96855.34;;;8.33;77.45
15932;BME280;8065;49.520;11.284;2024-01-07T02:11:36;96861.88;;;8.27;77.48
15932;BME280;8065;49.520;11.284;2024-01-07T02:14:05;96862.34;;;8.20;77.40
15932;BME280;8065;49.520;11.284;2024-01-07T02:16:33;96863.47;;;8.10;77.20
15932;BME280;8065;49.520;11.284;2024-01-07T02:19:01;96869.09;;;8.09;76.86
15932;BME280;8065;49.520;11.284;2024-01-07T02:21:32;96868.03;;;8.01;76.32
15932;BME280;8065;49.520;11.284;2024-01-07T02:24:06;96872.06;;;7.99;75.94
15932;BME280;8065;49.520;11.284;2024-01-07T02:26:42;96870.84;;;7.87;75.86
15932;BME280;8065;49.520;11.284;2024-01-07T02:29:11;96864.16;;;7.90;75.75
15932;BME280;8065;49.520;11.284;2024-01-07T02:31:39;96869.44;;;7.90;75.83
15932;BME280;8065;49.520;11.284;2024-01-07T02:34:08;96865.41;;;7.84;75.78
15932;BME280;8065;49.520;11.284;2024-01-07T02:36:37;96869.81;;;7.80;75.61
15932;BME280;8065;49.520;11.284;2024-01-07T02:39:07;96869.81;;;7.80;75.20
15932;BME280;8065;49.520;11.284;2024-01-07T02:41:36;96873.72;;;7.74;75.17
15932;BME280;8065;49.520;11.284;2024-01-07T02:44:04;96867.47;;;7.78;74.98
15932;BME280;8065;49.520;11.284;2024-01-07T02:46:32;96878.53;;;7.72;75.14
15932;BME280;8065;49.520;11.284;2024-01-07T02:49:01;96870.28;;;7.65;75.03
15932;BME280;8065;49.520;11.284;2024-01-07T02:51:29;96876.81;;;7.67;75.11
15932;BME280;8065;49.520;11.284;2024-01-07T02:53:57;96874.50;;;7.66;75.12
15932;BME280;8065;49.520;11.284;2024-01-07T02:56:28;96875.13;;;7.63;74.71
15932;BME280;8065;49.520;11.284;2024-01-07T02:58:56;96875.59;;;7.65;74.53
15932;BME280;8065;49.520;11.284;2024-01-07T03:01:25;96875.41;;;7.70;74.48
15932;BME280;8065;49.520;11.284;2024-01-07T03:03:53;96881.03;;;7.60;74.95
15932;BME280;8065;49.520;11.284;2024-01-07T03:06:21;96869.69;;;7.59;75.12
15932;BME280;8065;49.520;11.284;2024-01-07T03:08:50;96879.63;;;7.62;75.06
15932;BME280;8065;49.520;11.284;2024-01-07T03:11:18;96882.59;;;7.61;75.08
15932;BME280;8065;49.520;11.284;2024-01-07T03:13:49;96880.56;;;7.57;74.92
15932;BME280;8065;49.520;11.284;2024-01-07T03:16:21;96883.84;;;7.54;75.16
15932;BME280;8065;49.520;11.284;2024-01-07T03:18:49;96882.91;;;7.50;75.11
15932;BME280;8065;49.520;11.284;2024-01-07T03:21:18;96880.72;;;7.52;75.19
15932;BME280;8065;49.520;11.284;2024-01-07T03:23:47;96886.94;;;7.56;75.01
15932;BME280;8065;49.520;11.284;2024-01-07T03:26:17;96883.22;;;7.57;74.88
15932;BME280;8065;49.520;11.284;2024-01-07T03:28:45;96885.06;;;7.57;75.14
15932;BME280;8065;49.520;11.284;2024-01-07T03:31:18;96890.06;;;7.59;74.70
15932;BME280;8065;49.520;11.284;2024-01-07T03:33:48;96883.84;;;7.54;74.67
15932;BME280;8065;49.520;11.284;2024-01-07T03:36:16;96881.81;;;7.60;74.63
15932;BME280;8065;49.520;11.284;2024-01-07T03:38:42;96890.50;;;7.61;74.53
15932;BME280;8065;49.520;11.284;2024-01-07T03:41:16;96895.81;;;7.61;74.32
15932;BME280;8065;49.520;11.284;2024-01-07T03:43:44;96900.94;;;7.48;74.39
15932;BME280;8065;49.520;11.284;2024-01-07T03:46:15;96901.56;;;7.45;74.46
15932;BME280;8065;49.520;11.284;2024-01-07T03:48:44;96903.75;;;7.43;74.39
15932;BME280;8065;49.520;11.284;2024-01-07T03:51:13;96901.56;;;7.45;73.98
15932;BME280;8065;49.520;11.284;2024-01-07T03:53:41;96914.78;;;7.45;74.08
15932;BME280;8065;49.520;11.284;2024-01-07T03:56:09;96904.38;;;7.40;74.16
15932;BME280;8065;49.520;11.284;2024-01-07T03:58:37;96903.44;;;7.36;74.08
15932;BME280;8065;49.520;11.284;2024-01-07T04:01:06;96906.22;;;7.31;74.21
15932;BME280;8065;49.520;11.284;2024-01-07T04:03:37;96911.34;;;7.28;73.90
15932;BME280;8065;49.520;11.284;2024-01-07T04:06:06;96916.00;;;7.31;73.79
15932;BME280;8065;49.520;11.284;2024-01-07T04:08:34;96918.34;;;7.32;74.03
15932;BME280;8065;49.520;11.284;2024-01-07T04:11:03;96924.56;;;7.36;73.75
15932;BME280;8065;49.520;11.284;2024-01-07T04:13:31;96919.13;;;7.33;74.20
15932;BME280;8065;49.520;11.284;2024-01-07T04:16:00;96929.06;;;7.36;74.08
15932;BME280;8065;49.520;11.284;2024-01-07T04:18:28;96934.66;;;7.34;74.27
15932;BME280;8065;49.520;11.284;2024-01-07T04:20:59;96929.84;;;7.36;74.33
15932;BME280;8065;49.520;11.284;2024-01-07T04:23:27;96934.69;;;7.43;73.89
15932;BME280;8065;49.520;11.284;2024-01-07T04:25:55;96928.00;;;7.45;73.48
15932;BME280;8065;49.520;11.284;2024-01-07T04:28:24;96945.09;;;7.39;73.46
15932;BME280;8065;49.520;11.284;2024-01-07T04:30:52;96945.88;;;7.40;73.27
15932;BME280;8065;49.520;11.284;2024-01-07T04:33:21;96949.28;;;7.32;73.32
15932;BME280;8065;49.520;11.284;2024-01-07T04:35:49;96957.38;;;7.35;73.29
15932;BME280;8065;49.520;11.284;2024-01-07T04:38:20;96958.28;;;7.31;73.49
15932;BME280;8065;49.520;11.284;2024-01-07T04:40:48;96957.84;;;7.37;73.38
15932;BME280;8065;49.520;11.284;2024-01-07T04:43:16;96962.81;;;7.30;73.50
15932;BME280;8065;49.520;11.284;2024-01-07T04:45:45;96964.50;;;7.26;73.52
15932;BME280;8065;49.520;11.284;2024-01-07T04:48:13;96966.69;;;7.24;73.43
15932;BME280;8065;49.520;11.284;2024-01-07T04:50:42;96970.25;;;7.28;73.48
15932;BME280;8065;49.520;11.284;2024-01-07T04:53:10;96975.53;;;7.28;73.47
15932;BME280;8065;49.520;11.284;2024-01-07T04:55:41;96976.47;;;7.32;73.23
15932;BME280;8065;49.520;11.284;2024-01-07T04:58:09;96974.94;;;7.31;72.88
15932;BME280;8065;49.520;11.284;2024-01-07T05:00:37;96986.72;;;7.25;72.85
15932;BME280;8065;49.520;11.284;2024-01-07T05:03:06;96974.75;;;7.19;72.58
15932;BME280;8065;49.520;11.284;2024-01-07T05:05:34;96984.22;;;7.20;72.34
15932;BME280;8065;49.520;11.284;2024-01-07T05:08:04;96992.28;;;7.15;72.75
15932;BME280;8065;49.520;11.284;2024-01-07T05:10:32;96984.97;;;7.12;72.54
15932;BME280;8065;49.520;11.284;2024-01-07T05:13:03;96992.91;;;7.12;72.70
15932;BME280;8065;49.520;11.284;2024-01-07T05:15:32;96996.03;;;7.14;72.41
15932;BME280;8065;49.520;11.284;2024-01-07T05:18:00;96990.91;;;7.17;72.52
15932;BME280;8065;49.520;11.284;2024-01-07T05:20:29;96996.03;;;7.14;71.84
15932;BME280;8065;49.520;11.284;2024-01-07T05:22:57;96999.75;;;7.13;71.75
15932;BME280;8065;49.520;11.284;2024-01-07T05:25:25;97002.38;;;7.04;71.73
15932;BME280;8065;49.520;11.284;2024-01-07T05:27:53;97001.25;;;6.97;72.00
15932;BME280;8065;49.520;11.284;2024-01-07T05:30:24;96998.91;;;6.95;71.51
15932;BME280;8065;49.520;11.284;2024-01-07T05:32:52;97010.25;;;6.96;71.83
15932;BME280;8065;49.520;11.284;2024-01-07T05:35:21;97010.91;;;6.93;71.59
15932;BME280;8065;49.520;11.284;2024-01-07T05:37:46;97010.91;;;6.93;71.71
15932;BME280;8065;49.520;11.284;2024-01-07T05:40:15;97016.31;;;6.96;71.90
15932;BME280;8065;49.520;11.284;2024-01-07T05:42:43;97007.94;;;7.03;71.32
15932;BME280;8065;49.520;11.284;2024-01-07T05:45:11;97017.56;;;6.99;71.34
15932;BME280;8065;49.520;11.284;2024-01-07T05:47:45;97021.91;;;6.95;71.31
15932;BME280;8065;49.520;11.284;2024-01-07T05:50:14;97023.16;;;6.88;71.69
15932;BME280;8065;49.520;11.284;2024-01-07T05:52:44;97018.34;;;6.90;71.71
15932;BME280;8065;49.520;11.284;2024-01-07T05:55:12;97036.84;;;6.99;71.71
15932;BME280;8065;49.520;11.284;2024-01-07T05:57:42;97020.06;;;7.04;71.70
15932;BME280;8065;49.520;11.284;2024-01-07T06:00:12;97035.44;;;7.02;71.16
15932;BME280;8065;49.520;11.284;2024-01-07T06:02:40;97025.50;;;6.99;71.13
15932;BME280;8065;49.520;11.284;2024-01-07T06:05:11;97030.34;;;7.05;71.22
15932;BME280;8065;49.520;11.284;2024-01-07T06:07:39;97035.59;;;6.97;71.15
15932;BME280;8065;49.520;11.284;2024-01-07T06:10:08;97037.31;;;7.01;71.14
15932;BME280;8065;49.520;11.284;2024-01-07T06:12:37;97039.19;;;7.01;70.84
15932;BME280;8065;49.520;11.284;2024-01-07T06:15:06;97045.84;;;6.98;70.83
15932;BME280;8065;49.520;11.284;2024-01-07T06:17:34;97041.16;;;6.95;71.17
15932;BME280;8065;49.520;11.284;2024-01-07T06:20:03;97042.91;;;7.00;71.13
15932;BME280;8065;49.520;11.284;2024-01-07T06:22:34;97047.56;;;7.03;71.00
15932;BME280;8065;49.520;11.284;2024-01-07T06:25:03;97046.75;;;6.94;70.80
15932;BME280;8065;49.520;11.284;2024-01-07T06:27:31;97040.41;;;6.95;70.88
15932;BME280;8065;49.520;11.284;2024-01-07T06:29:59;97050.03;;;6.90;70.70
15932;BME280;8065;49.520;11.284;2024-01-07T06:32:29;97048.78;;;6.97;70.89
15932;BME280;8065;49.520;11.284;2024-01-07T06:34:58;97051.91;;;6.99;70.70
15932;BME280;8065;49.520;11.284;2024-01-07T06:37:26;97052.03;;;6.94;70.76
15932;BME280;8065;49.520;11.284;2024-01-07T06:39:58;97050.34;;;6.89;70.98
15932;BME280;8065;49.520;11.284;2024-01-07T06:42:26;97062.75;;;6.88;70.91
15932;BME280;8065;49.520;11.284;2024-01-07T06:44:54;97063.84;;;6.96;70.93
15932;BME280;8065;49.520;11.284;2024-01-07T06:47:22;97068.84;;;6.98;70.75
15932;BME280;8065;49.520;11.284;2024-01-07T06:49:51;97066.19;;;6.98;70.57
15932;BME280;8065;49.520;11.284;2024-01-07T06:52:19;97061.25;;;7.05;70.49
15932;BME280;8065;49.520;11.284;2024-01-07T06:54:47;97064.53;;;7.10;70.19
15932;BME280;8065;49.520;11.284;2024-01-07T06:57:18;97069.47;;;7.03;70.31
15932;BME280;8065;49.520;11.284;2024-01-07T06:59:46;97083.94;;;7.06;70.04
15932;BME280;8065;49.520;11.284;2024-01-07T07:02:15;97081.44;;;7.01;70.02
15932;BME280;8065;49.520;11.284;2024-01-07T07:04:43;97084.56;;;7.03;70.00
15932;BME280;8065;49.520;11.284;2024-01-07T07:07:11;97084.69;;;6.98;69.76
15932;BME280;8065;49.520;11.284;2024-01-07T07:09:40;97087.31;;;6.98;69.60
15932;BME280;8065;49.520;11.284;2024-01-07T07:12:08;97086.53;;;6.97;69.77
15932;BME280;8065;49.520;11.284;2024-01-07T07:14:39;97083.44;;;6.95;69.64
15932;BME280;8065;49.520;11.284;2024-01-07T07:17:07;97091.34;;;6.86;68.97
15932;BME280;8065;49.520;11.284;2024-01-07T07:19:36;97090.19;;;6.79;69.22
15932;BME280;8065;49.520;11.284;2024-01-07T07:22:04;97083.53;;;6.81;69.03
15932;BME280;8065;49.520;11.284;2024-01-07T07:24:32;97092.19;;;6.73;68.99
15932;BME280;8065;49.520;11.284;2024-01-07T07:27:01;97094.34;;;6.71;69.03
15932;BME280;8065;49.520;11.284;2024-01-07T07:29:29;97105.16;;;6.61;69.53
15932;BME280;8065;49.520;11.284;2024-01-07T07:32:00;97101.78;;;6.69;69.34
15932;BME280;8065;49.520;11.284;2024-01-07T07:34:28;97105.34;;;6.65;69.57
15932;BME280;8065;49.520;11.284;2024-01-07T07:36:56;97112.28;;;6.61;69.45
15932;BME280;8065;49.520;11.284;2024-01-07T07:39:24;97117.47;;;6.66;69.04
15932;BME280;8065;49.520;11.284;2024-01-07T07:41:53;97119.44;;;6.60;69.45
15932;BME280;8065;49.520;11.284;2024-01-07T07:44:21;97122.00;;;6.51;69.12
15932;BME280;8065;49.520;11.284;2024-01-07T07:46:49;97128.66;;;6.49;69.38
15932;BME280;8065;49.520;11.284;2024-01-07T07:49:20;97136.81;;;6.39;69.68
15932;BME280;8065;49.520;11.284;2024-01-07T07:51:48;97140.06;;;6.36;69.20
15932;BME280;8065;49.520;11.284;2024-01-07T07:54:17;97141.25;;;6.30;69.71
15932;BME280;8065;49.520;11.284;2024-01-07T07:56:45;97150.28;;;6.15;69.39
15932;BME280;8065;49.520;11.284;2024-01-07T07:59:13;97152.75;;;6.34;69.24
15932;BME280;8065;49.520;11.284;2024-01-07T08:01:42;97163.47;;;6.51;68.46
15932;BME280;8065;49.520;11.284;2024-01-07T08:04:10;97161.97;;;6.58;68.44
15932;BME280;8065;49.520;11.284;2024-01-07T08:06:41;97160.09;;;6.59;68.08
15932;BME280;8065;49.520;11.284;2024-01-07T08:09:10;97175.94;;;6.59;68.16
15932;BME280;8065;49.520;11.284;2024-01-07T08:11:38;97178.00;;;6.62;67.87
15932;BME280;8065;49.520;11.284;2024-01-07T08:14:07;97173.19;;;6.64;68.13
15932;BME280;8065;49.520;11.284;2024-01-07T08:16:35;97172.22;;;6.60;67.79
15932;BME280;8065;49.520;11.284;2024-01-07T08:19:04;97172.22;;;6.60;67.86
15932;BME280;8065;49.520;11.284;2024-01-07T08:21:32;97178.09;;;6.57;67.94
15932;BME280;8065;49.520;11.284;2024-01-07T08:24:03;97179.66;;;6.58;67.96
15932;BME280;8065;49.520;11.284;2024-01-07T08:26:32;97186.81;;;6.57;67.95
15932;BME280;8065;49.520;11.284;2024-01-07T08:29:00;97187.09;;;6.56;67.76
15932;BME280;8065;49.520;11.284;2024-01-07T08:31:28;97183.00;;;6.50;67.33
15932;BME280;8065;49.520;11.284;2024-01-07T08:33:57;97183.00;;;6.50;67.63
15932;BME280;8065;49.520;11.284;2024-01-07T08:36:25;97188.28;;;6.50;67.57
15932;BME280;8065;49.520;11.284;2024-01-07T08:38:54;97195.72;;;6.48;68.00
15932;BME280;8065;49.520;11.284;2024-01-07T08:41:25;97194.28;;;6.42;67.55
15932;BME280;8065;49.520;11.284;2024-01-07T08:43:54;97195.34;;;6.41;67.73
15932;BME280;8065;49.520;11.284;2024-01-07T08:46:22;97200.44;;;6.37;67.87
15932;BME280;8065;49.520;11.284;2024-01-07T08:48:50;97211.19;;;6.41;67.81
15932;BME280;8065;49.520;11.284;2024-01-07T08:51:18;97213.53;;;6.42;67.80
15932;BME280;8065;49.520;11.284;2024-01-07T08:53:47;97217.84;;;6.38;67.99
15932;BME280;8065;49.520;11.284;2024-01-07T08:56:15;97215.38;;;6.42;67.87
15932;BME280;8065;49.520;11.284;2024-01-07T08:58:46;97219.09;;;6.41;67.66
15932;BME280;8065;49.520;11.284;2024-01-07T09:01:14;97226.44;;;6.30;67.46
15932;BME280;8065;49.520;11.284;2024-01-07T09:03:42;97226.47;;;6.16;67.61
15932;BME280;8065;49.520;11.284;2024-01-07T09:06:11;97233.91;;;6.14;67.96
15932;BME280;8065;49.520;11.284;2024-01-07T09:08:39;97234.78;;;6.10;68.09
15932;BME280;8065;49.520;11.284;2024-01-07T09:11:08;97241.75;;;5.92;68.29
15932;BME280;8065;49.520;11.284;2024-01-07T09:13:36;97241.22;;;5.76;68.96
15932;BME280;8065;49.520;11.284;2024-01-07T09:16:07;97255.84;;;5.69;69.03
15932;BME280;8065;49.520;11.284;2024-01-07T09:18:36;97258.97;;;5.71;68.99
15932;BME280;8065;49.520;11.284;2024-01-07T09:21:05;97259.66;;;5.63;69.07
15932;BME280;8065;49.520;11.284;2024-01-07T09:23:33;97260.81;;;5.56;68.92
15932;BME280;8065;49.520;11.284;2024-01-07T09:26:01;97261.38;;;5.53;69.53
15932;BME280;8065;49.520;11.284;2024-01-07T09:28:30;97263.94;;;5.58;69.19
15932;BME280;8065;49.520;11.284;2024-01-07T09:30:58;97269.88;;;5.50;69.69
15932;BME280;8065;49.520;11.284;2024-01-07T09:33:29;97271.66;;;5.69;69.27
15932;BME280;8065;49.520;11.284;2024-01-07T09:35:57;97273.03;;;5.80;68.70
15932;BME280;8065;49.520;11.284;2024-01-07T09:38:26;97276.19;;;5.82;68.57
15932;BME280;8065;49.520;11.284;2024-01-07T09:40:54;97279.31;;;5.84;68.46
15932;BME280;8065;49.520;11.284;2024-01-07T09:43:22;97270.41;;;5.80;68.08
15932;BME280;8065;49.520;11.284;2024-01-07T09:45:51;97276.16;;;5.68;68.49
15932;BME280;8065;49.520;11.284;2024-01-07T09:48:21;97285.44;;;5.66;68.89
15932;BME280;8065;49.520;11.284;2024-01-07T09:50:52;97287.56;;;5.64;68.94
15932;BME280;8065;49.520;11.284;2024-01-07T09:53:24;97281.41;;;5.54;68.93
15932;BME280;8065;49.520;11.284;2024-01-07T09:56:00;97284.31;;;5.53;69.12
15932;BME280;8065;49.520;11.284;2024-01-07T09:58:31;97294.41;;;5.65;69.06
15932;BME280;8065;49.520;11.284;2024-01-07T10:01:02;97293.81;;;5.68;69.13
15932;BME280;8065;49.520;11.284;2024-01-07T10:03:31;97290.69;;;5.66;68.88
15932;BME280;8065;49.520;11.284;2024-01-07T10:06:02;97286.91;;;5.72;68.58
15932;BME280;8065;49.520;11.284;2024-01-07T10:08:31;97291.47;;;5.66;68.57
15932;BME280;8065;49.520;11.284;2024-01-07T10:11:00;97290.13;;;5.69;68.36
15932;BME280;8065;49.520;11.284;2024-01-07T10:13:30;97290.13;;;5.69;68.63
15932;BME280;8065;49.520;11.284;2024-01-07T10:15:58;97283.47;;;5.71;68.61
15932;BME280;8065;49.520;11.284;2024-01-07T10:18:27;97288.97;;;5.75;68.36
15932;BME280;8065;49.520;11.284;2024-01-07T10:21:05;97296.38;;;5.73;68.44
15932;BME280;8065;49.520;11.284;2024-01-07T10:23:34;97294.31;;;5.70;68.11
15932;BME280;8065;49.520;11.284;2024-01-07T10:26:03;97294.41;;;5.65;68.60
15932;BME280;8065;49.520;11.284;2024-01-07T10:28:31;97291.75;;;5.65;68.69
15932;BME280;8065;49.520;11.284;2024-01-07T10:30:59;97298.19;;;5.58;68.53
15932;BME280;8065;49.520;11.284;2024-01-07T10:33:30;97291.34;;;5.57;68.67
15932;BME280;8065;49.520;11.284;2024-01-07T10:36:05;97292.84;;;5.64;68.77
15932;BME280;8065;49.520;11.284;2024-01-07T10:38:33;97292.47;;;5.70;68.14
15932;BME280;8065;49.520;11.284;2024-01-07T10:41:02;97296.75;;;5.66;68.23
15932;BME280;8065;49.520;11.284;2024-01-07T10:43:32;97290.13;;;5.69;68.16
15932;BME280;8065;49.520;11.284;2024-01-07T10:46:02;97303.88;;;5.66;68.04
15932;BME280;8065;49.520;11.284;2024-01-07T10:48:37;97303.38;;;5.64;68.24
15932;BME280;8065;49.520;11.284;2024-01-07T10:51:08;97305.81;;;5.60;68.69
15932;BME280;8065;49.520;11.284;2024-01-07T10:53:39;97306.09;;;5.58;68.51
15932;BME280;8065;49.520;11.284;2024-01-07T10:56:11;97299.63;;;5.51;68.34
15932;BME280;8065;49.520;11.284;2024-01-07T10:58:41;97300.41;;;5.51;68.29
15932;BME280;8065;49.520;11.284;2024-01-07T11:01:11;97313.47;;;5.75;67.55
15932;BME280;8065;49.520;11.284;2024-01-07T11:03:44;97303.81;;;5.84;66.99
15932;BME280;8065;49.520;11.284;2024-01-07T11:06:22;97304.59;;;5.85;67.40
15932;BME280;8065;49.520;11.284;2024-01-07T11:08:57;97305.19;;;5.82;67.39
15932;BME280;8065;49.520;11.284;2024-01-07T11:11:36;97310.59;;;5.90;67.11
15932;BME280;8065;49.520;11.284;2024-01-07T11:14:35;97309.03;;;5.89;67.06
15932;BME280;8065;49.520;11.284;2024-01-07T11:17:05;97312.09;;;5.78;67.37
15932;BME280;8065;49.520;11.284;2024-01-07T11:19:35;97315.56;;;5.92;66.97
15932;BME280;8065;49.520;11.284;2024-01-07T11:22:24;97314.06;;;5.86;66.91
15932;BME280;8065;49.520;11.284;2024-01-07T11:24:53;97314.41;;;5.98;67.13
15932;BME280;8065;49.520;11.284;2024-01-07T11:27:22;97308.34;;;5.98;66.72
15932;BME280;8065;49.520;11.284;2024-01-07T11:29:54;97309.13;;;5.98;66.93
15932;BME280;8065;49.520;11.284;2024-01-07T11:32:23;97306.38;;;5.89;66.88
15932;BME280;8065;49.520;11.284;2024-01-07T11:34:52;97310.31;;;5.92;66.57
15932;BME280;8065;49.520;11.284;2024-01-07T11:37:24;97314.16;;;5.81;66.41
15932;BME280;8065;49.520;11.284;2024-01-07T11:39:55;97311.81;;;5.79;66.73
15932;BME280;8065;49.520;11.284;2024-01-07T11:42:24;97315.13;;;5.71;66.44
15932;BME280;8065;49.520;11.284;2024-01-07T11:44:53;97317.47;;;5.73;66.51
15932;BME280;8065;49.520;11.284;2024-01-07T11:47:21;97323.09;;;5.66;66.55
15932;BME280;8065;49.520;11.284;2024-01-07T11:49:49;97328.59;;;5.70;66.46
15932;BME280;8065;49.520;11.284;2024-01-07T11:52:19;97322.69;;;5.59;66.80
15932;BME280;8065;49.520;11.284;2024-01-07T11:54:48;97323.56;;;5.54;66.59
15932;BME280;8065;49.520;11.284;2024-01-07T11:57:16;97319.34;;;5.53;66.96
15932;BME280;8065;49.520;11.284;2024-01-07T11:59:45;97321.50;;;5.51;66.62
15932;BME280;8065;49.520;11.284;2024-01-07T12:02:14;97325.31;;;5.59;66.45
15932;BME280;8065;49.520;11.284;2024-01-07T12:04:42;97329.31;;;5.56;66.27
15932;BME280;8065;49.520;11.284;2024-01-07T12:07:11;97324.84;;;5.57;66.41
15932;BME280;8065;49.520;11.284;2024-01-07T12:09:39;97324.84;;;5.57;66.48
15932;BME280;8065;49.520;11.284;2024-01-07T12:12:10;97333.09;;;5.50;66.39
15932;BME280;8065;49.520;11.284;2024-01-07T12:14:39;97333.72;;;5.28;66.90
15932;BME280;8065;49.520;11.284;2024-01-07T12:17:08;97329.31;;;5.24;67.21
15932;BME280;8065;49.520;11.284;2024-01-07T12:19:37;97332.59;;;5.16;67.75
15932;BME280;8065;49.520;11.284;2024-01-07T12:22:06;97330.25;;;5.14;67.50
15932;BME280;8065;49.520;11.284;2024-01-07T12:24:34;97337.38;;;5.14;67.76
15932;BME280;8065;49.520;11.284;2024-01-07T12:27:06;97330.53;;;5.13;67.98
15932;BME280;8065;49.520;11.284;2024-01-07T12:29:37;97330.88;;;5.25;67.65
15932;BME280;8065;49.520;11.284;2024-01-07T12:32:06;97332.94;;;5.28;67.32
15932;BME280;8065;49.520;11.284;2024-01-07T12:34:36;97331.38;;;5.27;67.02
15932;BME280;8065;49.520;11.284;2024-01-07T12:37:05;97331.56;;;5.31;67.14
15932;BME280;8065;49.520;11.284;2024-01-07T12:39:33;97335.03;;;5.12;67.28
15932;BME280;8065;49.520;11.284;2024-01-07T12:42:02;97339.66;;;5.02;67.89
15932;BME280;8065;49.520;11.284;2024-01-07T12:44:32;97341.38;;;5.11;67.60
15932;BME280;8065;49.520;11.284;2024-01-07T12:47:03;97349.06;;;5.08;67.80
15932;BME280;8065;49.520;11.284;2024-01-07T12:49:32;97348.91;;;5.18;67.34
15932;BME280;8065;49.520;11.284;2024-01-07T12:52:00;97350.03;;;5.12;67.61
15932;BME280;8065;49.520;11.284;2024-01-07T12:54:28;97352.69;;;5.12;67.55
15932;BME280;8065;49.520;11.284;2024-01-07T12:56:57;97352.13;;;5.15;67.36
15932;BME280;8065;49.520;11.284;2024-01-07T12:59:26;97355.25;;;5.17;67.48
15932;BME280;8065;49.520;11.284;2024-01-07T13:01:54;97355.31;;;5.12;66.68
15932;BME280;8065;49.520;11.284;2024-01-07T13:04:25;97364.28;;;5.11;67.02
15932;BME280;8065;49.520;11.284;2024-01-07T13:06:53;97365.28;;;5.15;66.63
15932;BME280;8065;49.520;11.284;2024-01-07T13:09:22;97371.94;;;5.26;66.52
15932;BME280;8065;49.520;11.284;2024-01-07T13:11:50;97368.44;;;5.31;66.12
15932;BME280;8065;49.520;11.284;2024-01-07T13:14:19;97374.06;;;5.24;66.19
15932;BME280;8065;49.520;11.284;2024-01-07T13:16:47;97379.50;;;5.14;66.26
15932;BME280;8065;49.520;11.284;2024-01-07T13:19:16;97386.13;;;5.11;66.41